createdAt,value
2023-02-22T00:01:19.390Z,37.83
2023-02-22T00:03:25.095Z,40.27
2023-02-22T00:05:31.527Z,37.20
2023-02-22T00:07:35.783Z,37.53
2023-02-22T00:09:38.603Z,38.27
2023-02-22T00:11:47.596Z,40.87
2023-02-22T00:13:50.802Z,39.67
2023-02-22T00:15:57.614Z,38.53
2023-02-22T00:18:01.996Z,39.43
2023-02-22T00:20:07.211Z,40.27
2023-02-22T00:22:10.076Z,40.00
2023-02-22T00:24:23.198Z,38.63
2023-02-22T00:26:26.370Z,38.00
2023-02-22T00:28:30.653Z,40.80
2023-02-22T00:30:34.342Z,36.70
2023-02-22T00:32:37.296Z,40.93
2023-02-22T00:34:42.108Z,41.07
2023-02-22T00:36:48.226Z,41.63
2023-02-22T00:38:51.143Z,42.07
2023-02-22T00:40:54.149Z,42.13
2023-02-22T00:42:57.696Z,40.27
2023-02-22T00:45:00.550Z,44.07
2023-02-22T00:47:04.851Z,41.30
2023-02-22T00:49:07.915Z,45.07
2023-02-22T00:51:13.307Z,41.17
2023-02-22T00:53:16.903Z,41.03
2023-02-22T00:55:22.885Z,43.87
2023-02-22T00:57:26.600Z,41.17
2023-02-22T00:59:31.113Z,44.10
2023-02-22T01:01:34.063Z,41.90
2023-02-22T01:03:41.500Z,41.63
2023-02-22T01:05:45.435Z,39.83
2023-02-22T01:07:51.068Z,41.33
2023-02-22T01:09:54.363Z,39.23
2023-02-22T01:11:58.343Z,41.60
2023-02-22T01:14:01.283Z,38.07
2023-02-22T01:16:04.543Z,40.97
2023-02-22T01:18:08.147Z,37.00
2023-02-22T01:20:13.567Z,36.77
2023-02-22T01:22:17.298Z,39.40
2023-02-22T01:24:22.441Z,39.90
2023-02-22T01:26:26.128Z,40.70
2023-02-22T01:28:29.198Z,35.77
2023-02-22T01:30:34.027Z,35.93
2023-02-22T01:32:37.983Z,35.53
2023-02-22T01:34:41.651Z,36.40
2023-02-22T01:36:47.391Z,37.00
2023-02-22T01:38:50.485Z,36.20
2023-02-22T01:40:54.857Z,32.50
2023-02-22T01:42:59.812Z,29.67
2023-02-22T01:45:41.159Z,30.73
2023-02-22T01:47:44.840Z,30.10
2023-02-22T01:49:49.379Z,26.90
2023-02-22T01:51:55.965Z,28.53
2023-02-22T01:54:01.019Z,25.90
2023-02-22T01:56:06.547Z,29.47
2023-02-22T01:58:10.932Z,26.90
2023-02-22T02:00:17.313Z,32.83
2023-02-22T02:02:22.177Z,27.27
2023-02-22T02:04:26.390Z,31.03
2023-02-22T02:06:33.588Z,28.03
2023-02-22T02:08:39.820Z,27.43
2023-02-22T02:10:44.229Z,29.77
2023-02-22T02:12:50.501Z,32.97
2023-02-22T02:14:53.414Z,26.83
2023-02-22T02:16:57.317Z,22.10
2023-02-22T02:19:01.422Z,28.87
2023-02-22T02:21:40.725Z,24.77
2023-02-22T02:24:16.207Z,23.87
2023-02-22T02:26:59.244Z,24.13
2023-02-22T02:29:25.302Z,25.40
2023-02-22T02:31:47.644Z,30.17
2023-02-22T02:33:56.093Z,22.87
2023-02-22T02:36:04.551Z,29.07
2023-02-22T02:38:13.011Z,23.00
2023-02-22T02:40:21.903Z,22.60
2023-02-22T02:42:27.712Z,23.67
2023-02-22T02:44:34.024Z,23.10
2023-02-22T02:46:40.163Z,25.80
2023-02-22T02:48:45.093Z,23.80
2023-02-22T02:50:49.952Z,21.80
2023-02-22T02:52:55.055Z,26.70
2023-02-22T02:54:58.583Z,24.93
2023-02-22T02:57:01.513Z,23.70
2023-02-22T02:59:04.572Z,24.10
2023-02-22T03:01:07.424Z,24.40
2023-02-22T03:03:23.564Z,23.70
2023-02-22T03:05:44.063Z,22.13
2023-02-22T03:07:53.059Z,23.27
2023-02-22T03:10:09.002Z,21.63
2023-02-22T03:12:19.883Z,23.20
2023-02-22T03:14:25.926Z,23.33
2023-02-22T03:16:35.408Z,24.70
2023-02-22T03:18:46.896Z,26.23
2023-02-22T03:20:54.635Z,25.40
2023-02-22T03:23:00.727Z,26.10
2023-02-22T03:25:09.029Z,24.10
2023-02-22T03:27:14.161Z,21.33
2023-02-22T03:29:23.394Z,23.63
2023-02-22T03:31:31.466Z,24.23
2023-02-22T03:33:37.896Z,23.00
2023-02-22T03:35:43.963Z,26.30
2023-02-22T03:37:48.271Z,24.00
2023-02-22T03:39:56.155Z,20.90
2023-02-22T03:42:00.999Z,27.53
2023-02-22T03:44:06.759Z,22.17
2023-02-22T03:46:10.418Z,25.60
2023-02-22T03:48:21.695Z,31.93
2023-02-22T03:50:29.800Z,34.57
2023-02-22T03:52:32.638Z,29.10
2023-02-22T03:54:36.149Z,25.20
2023-02-22T03:56:47.284Z,22.40
2023-02-22T03:58:51.112Z,30.20
2023-02-22T04:00:54.720Z,21.67
2023-02-22T04:02:58.267Z,21.70
2023-02-22T04:05:01.377Z,18.90
2023-02-22T04:07:04.561Z,18.30
2023-02-22T04:09:08.654Z,19.57
2023-02-22T04:11:11.601Z,17.33
2023-02-22T04:13:16.366Z,17.33
2023-02-22T04:15:24.884Z,16.90
2023-02-22T04:17:32.118Z,16.90
2023-02-22T04:19:36.301Z,15.10
2023-02-22T04:21:39.167Z,16.23
2023-02-22T04:23:46.096Z,15.97
2023-02-22T04:25:49.505Z,14.60
2023-02-22T04:27:54.033Z,14.30
2023-02-22T04:30:10.592Z,13.83
2023-02-22T04:32:14.894Z,14.80
2023-02-22T04:34:17.824Z,13.40
2023-02-22T04:36:21.727Z,14.30
2023-02-22T04:38:26.012Z,14.07
2023-02-22T04:40:30.378Z,13.90
2023-02-22T04:42:33.521Z,13.97
2023-02-22T04:44:36.450Z,14.37
2023-02-22T04:46:42.140Z,15.00
2023-02-22T04:48:46.157Z,15.60
2023-02-22T04:50:51.270Z,14.70
2023-02-22T04:52:55.025Z,16.20
2023-02-22T04:54:58.576Z,14.03
2023-02-22T04:57:01.687Z,14.80
2023-02-22T04:59:06.581Z,13.67
2023-02-22T05:01:09.587Z,14.53
2023-02-22T05:03:14.096Z,14.60
2023-02-22T05:05:17.674Z,14.60
2023-02-22T05:07:20.536Z,14.43
2023-02-22T05:09:23.389Z,14.60
2023-02-22T05:11:26.440Z,13.47
2023-02-22T05:13:29.331Z,12.80
2023-02-22T05:15:32.698Z,12.30
2023-02-22T05:17:35.995Z,13.37
2023-02-22T05:19:41.014Z,12.37
2023-02-22T05:21:43.930Z,11.10
2023-02-22T05:23:47.276Z,12.50
2023-02-22T05:25:50.316Z,12.47
2023-02-22T05:27:53.894Z,13.30
2023-02-22T05:29:57.486Z,13.33
2023-02-22T05:32:02.716Z,12.30
2023-02-22T05:34:05.700Z,12.03
2023-02-22T05:36:10.673Z,10.70
2023-02-22T05:38:15.109Z,11.30
2023-02-22T05:40:19.145Z,11.30
2023-02-22T05:42:23.420Z,11.57
2023-02-22T05:44:26.433Z,11.70
2023-02-22T05:46:29.328Z,11.77
2023-02-22T05:48:32.319Z,10.67
2023-02-22T05:50:35.302Z,11.37
2023-02-22T05:52:39.573Z,10.93
2023-02-22T05:54:42.533Z,10.80
2023-02-22T05:56:45.376Z,11.70
2023-02-22T05:58:48.412Z,11.93
2023-02-22T06:00:51.342Z,11.30
2023-02-22T06:02:57.509Z,10.90
2023-02-22T06:05:00.710Z,10.63
2023-02-22T06:07:03.691Z,10.57
2023-02-22T06:09:08.144Z,10.33
2023-02-22T06:11:11.408Z,10.53
2023-02-22T06:13:14.312Z,10.13
2023-02-22T06:15:18.146Z,11.13
2023-02-22T06:17:21.069Z,10.27
2023-02-22T06:19:24.267Z,9.67
2023-02-22T06:21:27.659Z,10.17
2023-02-22T06:23:30.550Z,10.67
2023-02-22T06:25:34.770Z,9.40
2023-02-22T06:27:37.778Z,10.40
2023-02-22T06:29:40.806Z,11.33
2023-02-22T06:31:44.079Z,12.70
2023-02-22T06:33:47.326Z,13.97
2023-02-22T06:35:50.378Z,13.30
2023-02-22T06:37:53.284Z,12.47
2023-02-22T06:39:56.272Z,15.50
2023-02-22T06:42:01.266Z,16.33
2023-02-22T06:44:05.691Z,18.20
2023-02-22T06:46:11.106Z,14.43
2023-02-22T06:48:14.055Z,17.80
2023-02-22T06:50:22.516Z,13.77
2023-02-22T06:52:26.004Z,18.00
2023-02-22T06:54:29.201Z,15.57
2023-02-22T06:56:32.066Z,14.80
2023-02-22T06:58:36.434Z,15.67
2023-02-22T07:00:39.327Z,13.33
2023-02-22T07:02:42.372Z,12.10
2023-02-22T07:04:46.410Z,13.10
2023-02-22T07:06:49.704Z,13.30
2023-02-22T07:08:52.778Z,12.27
2023-02-22T07:10:56.583Z,11.50
2023-02-22T07:12:59.441Z,11.33
2023-02-22T07:15:03.715Z,13.00
2023-02-22T07:17:07.666Z,13.73
2023-02-22T07:19:10.581Z,12.80
2023-02-22T07:21:13.864Z,12.80
2023-02-22T07:23:17.691Z,12.33
2023-02-22T07:25:21.727Z,12.47
2023-02-22T07:27:24.596Z,12.10
2023-02-22T07:29:27.517Z,11.33
2023-02-22T07:31:36.530Z,12.37
2023-02-22T07:33:39.863Z,10.43
2023-02-22T07:35:46.436Z,10.93
2023-02-22T07:37:49.417Z,13.37
2023-02-22T07:39:52.316Z,10.50
2023-02-22T07:41:55.428Z,12.13
2023-02-22T07:43:59.262Z,11.00
2023-02-22T07:46:03.320Z,12.50
2023-02-22T07:48:08.154Z,11.93
2023-02-22T07:50:11.091Z,10.60
2023-02-22T07:52:14.418Z,11.50
2023-02-22T07:54:17.842Z,11.40
2023-02-22T07:56:21.126Z,10.33
2023-02-22T07:58:25.732Z,11.57
2023-02-22T08:00:32.007Z,11.97
2023-02-22T08:02:34.988Z,10.90
2023-02-22T08:04:39.595Z,10.20
2023-02-22T08:06:46.297Z,11.60
2023-02-22T08:08:49.191Z,10.77
2023-02-22T08:10:52.670Z,10.47
2023-02-22T08:12:56.440Z,10.03
2023-02-22T08:14:59.492Z,10.60
2023-02-22T08:17:02.393Z,10.37
2023-02-22T08:19:05.370Z,9.90
2023-02-22T08:21:09.652Z,10.53
2023-02-22T08:23:13.855Z,10.23
2023-02-22T08:25:18.988Z,9.53
2023-02-22T08:27:26.132Z,9.30
2023-02-22T08:29:33.466Z,8.70
2023-02-22T08:31:36.487Z,9.80
2023-02-22T08:33:39.499Z,8.97
2023-02-22T08:35:43.018Z,8.20
2023-02-22T08:37:48.961Z,7.93
2023-02-22T08:39:51.844Z,8.87
2023-02-22T08:41:54.934Z,8.70
2023-02-22T08:44:01.260Z,9.00
2023-02-22T08:46:04.213Z,9.50
2023-02-22T08:48:07.528Z,8.90
2023-02-22T08:50:12.006Z,9.03
2023-02-22T08:52:14.940Z,8.47
2023-02-22T08:54:19.316Z,9.67
2023-02-22T08:56:23.395Z,9.87
2023-02-22T08:58:26.319Z,10.00
2023-02-22T09:00:32.942Z,8.93
2023-02-22T09:02:36.035Z,10.20
2023-02-22T09:04:38.939Z,11.10
2023-02-22T09:06:42.359Z,10.83
2023-02-22T09:08:45.297Z,10.53
2023-02-22T09:10:51.390Z,11.13
2023-02-22T09:12:55.446Z,10.83
2023-02-22T09:14:58.339Z,12.50
2023-02-22T09:17:01.408Z,11.80
2023-02-22T09:19:04.491Z,10.57
2023-02-22T09:21:07.576Z,9.30
2023-02-22T09:23:10.609Z,9.25
2023-02-22T09:25:16.983Z,8.90
2023-02-22T09:27:21.648Z,9.38
2023-02-22T09:29:26.157Z,9.05
2023-02-22T09:31:29.322Z,9.23
2023-02-22T09:33:32.362Z,9.07
2023-02-22T09:35:36.669Z,9.15
2023-02-22T09:37:39.707Z,7.72
2023-02-22T09:39:42.747Z,8.68
2023-02-22T09:41:53.339Z,8.05
2023-02-22T09:44:07.624Z,7.90
2023-02-22T09:46:19.715Z,8.32
2023-02-22T09:48:25.277Z,8.30
2023-02-22T09:50:35.753Z,7.85
2023-02-22T09:52:42.573Z,8.10
2023-02-22T09:54:51.940Z,7.10
2023-02-22T09:56:57.575Z,7.05
2023-02-22T09:59:04.798Z,7.60
2023-02-22T10:01:22.265Z,7.47
2023-02-22T10:03:26.703Z,8.43
2023-02-22T10:05:33.795Z,7.53
2023-02-22T10:07:40.738Z,7.80
2023-02-22T10:09:45.254Z,6.97
2023-02-22T10:11:53.404Z,8.20
2023-02-22T10:14:03.340Z,6.25
2023-02-22T10:16:11.946Z,7.22
2023-02-22T10:18:32.743Z,6.65
2023-02-22T10:20:44.046Z,7.80
2023-02-22T10:22:57.945Z,7.75
2023-02-22T10:25:04.792Z,7.03
2023-02-22T10:27:08.930Z,7.70
2023-02-22T10:29:26.769Z,6.60
2023-02-22T10:31:33.540Z,7.18
2023-02-22T10:33:40.425Z,7.38
2023-02-22T10:35:45.385Z,7.20
2023-02-22T10:37:53.264Z,6.43
2023-02-22T10:40:01.362Z,6.72
2023-02-22T10:42:06.881Z,6.88
2023-02-22T10:44:09.789Z,7.43
2023-02-22T10:46:17.288Z,6.32
2023-02-22T10:48:21.287Z,7.22
2023-02-22T10:50:24.291Z,5.97
2023-02-22T10:52:29.441Z,6.13
2023-02-22T10:54:34.961Z,5.93
2023-02-22T10:56:48.163Z,6.93
2023-02-22T10:58:53.488Z,7.22
2023-02-22T11:00:56.420Z,6.55
2023-02-22T11:03:01.770Z,5.57
2023-02-22T11:05:06.604Z,6.28
2023-02-22T11:07:11.415Z,5.97
2023-02-22T11:09:17.897Z,5.88
2023-02-22T11:11:25.340Z,5.60
2023-02-22T11:13:31.057Z,5.88
2023-02-22T11:15:36.045Z,5.97
2023-02-22T11:17:39.151Z,6.68
2023-02-22T11:19:49.104Z,6.13
2023-02-22T11:21:54.696Z,5.72
2023-02-22T11:24:03.910Z,5.63
2023-02-22T11:26:10.490Z,6.07
2023-02-22T11:28:18.452Z,5.45
2023-02-22T11:30:29.071Z,5.40
2023-02-22T11:32:32.140Z,5.75
2023-02-22T11:34:37.577Z,6.03
2023-02-22T11:36:43.606Z,5.35
2023-02-22T11:38:56.222Z,5.60
2023-02-22T11:41:15.662Z,5.40
2023-02-22T11:43:20.081Z,5.40
2023-02-22T11:45:24.932Z,4.75
2023-02-22T11:47:27.843Z,4.82
2023-02-22T11:49:35.096Z,4.35
2023-02-22T11:51:52.459Z,4.70
2023-02-22T11:54:10.376Z,4.07
2023-02-22T11:56:20.706Z,5.15
2023-02-22T11:58:40.976Z,4.85
2023-02-22T12:00:53.142Z,4.40
2023-02-22T12:03:09.518Z,3.85
2023-02-22T12:05:25.240Z,4.30
2023-02-22T12:07:42.323Z,4.07
2023-02-22T12:09:49.433Z,4.35
2023-02-22T12:12:01.831Z,3.75
2023-02-22T12:14:19.195Z,3.55
2023-02-22T12:16:25.957Z,3.25
2023-02-22T12:18:33.981Z,4.07
2023-02-22T12:20:39.962Z,3.72
2023-02-22T12:22:53.985Z,4.63
2023-02-22T12:25:08.949Z,4.25
2023-02-22T12:27:16.284Z,3.90
2023-02-22T12:29:27.716Z,4.18
2023-02-22T12:31:33.889Z,4.57
2023-02-22T12:33:45.267Z,3.95
2023-02-22T12:35:52.966Z,3.83
2023-02-22T12:38:08.337Z,3.63
2023-02-22T12:40:17.754Z,3.30
2023-02-22T12:42:24.724Z,2.83
2023-02-22T12:44:32.090Z,4.00
2023-02-22T12:46:38.861Z,3.58
2023-02-22T12:48:45.954Z,3.55
2023-02-22T12:50:50.728Z,3.00
2023-02-22T12:52:58.917Z,3.35
2023-02-22T12:55:11.308Z,2.78
2023-02-22T12:57:19.840Z,3.40
2023-02-22T12:59:28.287Z,3.40
2023-02-22T13:01:35.525Z,3.05
2023-02-22T13:03:40.289Z,3.03
2023-02-22T13:05:43.723Z,2.90
2023-02-22T13:07:50.251Z,2.88
2023-02-22T13:10:08.358Z,2.97
2023-02-22T13:12:16.225Z,2.88
2023-02-22T13:14:33.688Z,2.42
2023-02-22T13:16:44.006Z,2.70
2023-02-22T13:18:51.752Z,2.90
2023-02-22T13:21:00.279Z,3.10
2023-02-22T13:23:06.808Z,3.72
2023-02-22T13:25:15.570Z,2.88
2023-02-22T13:27:22.799Z,3.08
2023-02-22T13:29:29.671Z,2.90
2023-02-22T13:31:46.881Z,3.17
2023-02-22T13:34:02.997Z,3.78
2023-02-22T13:36:19.050Z,3.28
2023-02-22T13:38:58.161Z,2.58
2023-02-22T13:41:14.808Z,2.55
2023-02-22T13:43:36.510Z,2.72
2023-02-22T13:46:03.253Z,3.08
2023-02-22T13:48:35.187Z,3.42
2023-02-22T13:51:06.738Z,3.15
2023-02-22T13:53:13.907Z,3.10
2023-02-22T13:55:19.104Z,2.90
2023-02-22T13:57:25.890Z,3.40
2023-02-22T13:59:31.689Z,3.00
2023-02-22T14:01:42.809Z,3.63
2023-02-22T14:03:47.225Z,3.20
2023-02-22T14:05:52.971Z,2.92
2023-02-22T14:07:56.380Z,3.10
2023-02-22T14:10:01.737Z,3.15
2023-02-22T14:12:05.482Z,3.55
2023-02-22T14:14:14.996Z,3.05
2023-02-22T14:16:21.023Z,3.42
2023-02-22T14:18:24.242Z,2.70
2023-02-22T14:20:32.601Z,3.40
2023-02-22T14:22:35.797Z,3.38
2023-02-22T14:24:43.883Z,4.05
2023-02-22T14:27:01.035Z,3.22
2023-02-22T14:29:18.599Z,4.00
2023-02-22T14:31:35.648Z,3.65
2023-02-22T14:34:01.439Z,4.07
2023-02-22T14:36:05.382Z,3.90
2023-02-22T14:38:18.142Z,4.32
2023-02-22T14:40:25.888Z,4.03
2023-02-22T14:42:31.622Z,3.63
2023-02-22T14:44:39.524Z,4.40
2023-02-22T14:46:43.624Z,4.32
2023-02-22T14:48:49.299Z,4.45
2023-02-22T14:50:55.016Z,4.63
2023-02-22T14:53:02.418Z,4.00
2023-02-22T14:55:13.748Z,4.63
2023-02-22T14:57:24.509Z,4.32
2023-02-22T14:59:28.916Z,4.50
2023-02-22T15:01:48.898Z,3.95
2023-02-22T15:04:07.590Z,4.32
2023-02-22T15:06:16.776Z,4.65
2023-02-22T15:08:28.073Z,4.00
2023-02-22T15:10:33.108Z,4.03
2023-02-22T15:12:36.038Z,4.68
2023-02-22T15:14:41.124Z,4.45
2023-02-22T15:16:48.956Z,4.88
2023-02-22T15:18:54.595Z,4.55
2023-02-22T15:20:59.382Z,4.88
2023-02-22T15:23:02.765Z,4.45
2023-02-22T15:25:08.564Z,4.22
2023-02-22T15:27:16.153Z,4.57
2023-02-22T15:29:21.532Z,3.83
2023-02-22T15:31:29.153Z,3.92
2023-02-22T15:33:38.085Z,4.00
2023-02-22T15:35:41.023Z,3.63
2023-02-22T15:37:45.505Z,4.00
2023-02-22T15:39:48.548Z,3.65
2023-02-22T15:42:02.281Z,3.92
2023-02-22T15:44:17.815Z,4.30
2023-02-22T15:46:25.569Z,4.30
2023-02-22T15:48:29.749Z,4.00
2023-02-22T15:50:35.693Z,4.20
2023-02-22T15:52:38.645Z,4.22
2023-02-22T15:54:47.569Z,4.55
2023-02-22T15:56:55.580Z,4.65
2023-02-22T15:59:03.751Z,3.83
2023-02-22T16:01:08.978Z,5.07
2023-02-22T16:03:13.876Z,4.60
2023-02-22T16:05:18.554Z,4.10
2023-02-22T16:07:27.391Z,4.20
2023-02-22T16:09:33.239Z,4.35
2023-02-22T16:11:40.331Z,4.85
2023-02-22T16:13:44.266Z,4.82
2023-02-22T16:15:55.427Z,4.88
2023-02-22T16:18:02.437Z,4.13
2023-02-22T16:20:34.542Z,5.20
2023-02-22T16:22:46.869Z,4.28
2023-02-22T16:24:52.546Z,4.68
2023-02-22T16:27:08.200Z,4.50
2023-02-22T16:29:11.135Z,4.40
2023-02-22T16:31:14.358Z,4.45
2023-02-22T16:33:17.430Z,4.90
2023-02-22T16:35:20.487Z,4.75
2023-02-22T16:37:23.958Z,4.55
2023-02-22T16:39:29.597Z,5.45
2023-02-22T16:41:32.507Z,4.10
2023-02-22T16:43:35.930Z,4.55
2023-02-22T16:45:40.715Z,4.55
2023-02-22T16:47:45.673Z,4.50
2023-02-22T16:49:53.025Z,4.70
2023-02-22T16:52:23.371Z,4.70
2023-02-22T16:54:36.628Z,4.45
2023-02-22T16:56:40.660Z,5.60
2023-02-22T16:58:43.989Z,5.10
2023-02-22T17:01:12.813Z,4.72
2023-02-22T17:03:18.551Z,4.80
2023-02-22T17:05:21.866Z,5.05
2023-02-22T17:07:29.814Z,5.32
2023-02-22T17:10:34.059Z,4.65
2023-02-22T17:12:41.631Z,5.32
2023-02-22T17:14:47.232Z,6.82
2023-02-22T17:16:50.306Z,7.40
2023-02-22T17:18:53.213Z,6.77
2023-02-22T17:20:56.967Z,5.95
2023-02-22T17:23:01.143Z,6.72
2023-02-22T17:25:15.889Z,6.60
2023-02-22T17:27:19.055Z,6.13
2023-02-22T17:29:23.477Z,5.07
2023-02-22T17:31:29.496Z,5.70
2023-02-22T17:33:36.062Z,6.50
2023-02-22T17:35:41.057Z,5.30
2023-02-22T17:37:45.735Z,6.23
2023-02-22T17:39:48.654Z,5.57
2023-02-22T17:41:57.710Z,5.88
2023-02-22T17:44:00.654Z,5.97
2023-02-22T17:46:08.957Z,6.43
2023-02-22T17:48:11.949Z,5.27
2023-02-22T17:50:15.484Z,6.70
2023-02-22T17:52:18.358Z,7.00
2023-02-22T17:54:21.495Z,6.80
2023-02-22T17:56:24.432Z,6.23
2023-02-22T17:58:30.903Z,5.87
2023-02-22T18:00:36.865Z,6.20
2023-02-22T18:02:41.877Z,5.80
2023-02-22T18:04:45.149Z,6.20
2023-02-22T18:06:48.140Z,6.43
2023-02-22T18:08:55.556Z,6.23
2023-02-22T18:11:01.936Z,6.78
2023-02-22T18:13:05.052Z,6.80
2023-02-22T18:15:10.767Z,6.80
2023-02-22T18:17:13.803Z,6.57
2023-02-22T18:19:20.941Z,9.10
2023-02-22T18:21:26.740Z,8.30
2023-02-22T18:23:31.898Z,8.17
2023-02-22T18:25:35.349Z,7.73
2023-02-22T18:27:39.583Z,7.23
2023-02-22T18:29:42.652Z,7.90
2023-02-22T18:31:46.569Z,7.93
2023-02-22T18:33:51.536Z,8.27
2023-02-22T18:35:56.224Z,7.32
2023-02-22T18:37:59.410Z,9.23
2023-02-22T18:40:02.924Z,7.83
2023-02-22T18:42:05.974Z,7.90
2023-02-22T18:44:11.106Z,7.83
2023-02-22T18:46:16.259Z,8.70
2023-02-22T18:48:19.585Z,9.17
2023-02-22T18:50:23.022Z,8.80
2023-02-22T18:52:27.322Z,8.97
2023-02-22T18:54:30.351Z,9.60
2023-02-22T18:56:34.121Z,9.23
2023-02-22T18:58:38.847Z,9.33
2023-02-22T19:00:42.123Z,9.63
2023-02-22T19:02:45.178Z,9.33
2023-02-22T19:04:49.004Z,9.30
2023-02-22T19:06:52.658Z,9.33
2023-02-22T19:09:08.656Z,7.90
2023-02-22T19:11:25.562Z,8.43
2023-02-22T19:13:46.304Z,9.73
2023-02-22T19:15:49.310Z,9.27
2023-02-22T19:17:52.497Z,8.93
2023-02-22T19:19:55.908Z,8.90
2023-02-22T19:21:59.034Z,9.40
2023-02-22T19:24:04.479Z,10.30
2023-02-22T19:26:09.433Z,9.93
2023-02-22T19:28:23.396Z,8.87
2023-02-22T19:30:27.766Z,9.53
2023-02-22T19:32:33.348Z,9.50
2023-02-22T19:34:37.107Z,9.03
2023-02-22T19:36:41.297Z,9.10
2023-02-22T19:38:44.698Z,9.80
2023-02-22T19:40:49.091Z,8.53
2023-02-22T19:42:54.696Z,8.70
2023-02-22T19:44:58.470Z,8.17
2023-02-22T19:47:01.460Z,10.90
2023-02-22T19:49:05.438Z,10.30
2023-02-22T19:51:11.004Z,10.43
2023-02-22T19:53:14.148Z,9.77
2023-02-22T19:55:17.189Z,10.00
2023-02-22T19:57:24.987Z,10.20
2023-02-22T19:59:28.064Z,7.80
2023-02-22T20:01:34.209Z,9.47
2023-02-22T20:03:39.499Z,9.40
2023-02-22T20:05:43.696Z,9.10
2023-02-22T20:07:47.044Z,10.40
2023-02-22T20:09:50.049Z,9.30
2023-02-22T20:11:53.061Z,9.27
2023-02-22T20:13:57.587Z,10.03
2023-02-22T20:16:00.930Z,11.70
2023-02-22T20:18:03.901Z,12.23
2023-02-22T20:20:09.411Z,11.67
2023-02-22T20:22:13.061Z,12.83
2023-02-22T20:24:18.393Z,12.80
2023-02-22T20:26:24.174Z,11.93
2023-02-22T20:28:27.137Z,14.17
2023-02-22T20:30:33.608Z,12.50
2023-02-22T20:32:37.843Z,11.87
2023-02-22T20:34:40.993Z,13.60
2023-02-22T20:36:44.223Z,12.77
2023-02-22T20:38:47.150Z,13.73
2023-02-22T20:40:50.122Z,14.40
2023-02-22T20:42:53.514Z,13.47
2023-02-22T20:45:01.748Z,15.57
2023-02-22T20:47:06.976Z,14.90
2023-02-22T20:49:17.335Z,14.40
2023-02-22T20:51:20.606Z,14.67
2023-02-22T20:53:24.104Z,16.13
2023-02-22T20:55:27.315Z,16.57
2023-02-22T20:57:54.908Z,16.20
2023-02-22T20:59:59.096Z,16.33
2023-02-22T21:02:02.141Z,17.60
2023-02-22T21:04:07.957Z,18.50
2023-02-22T21:06:11.803Z,19.00
2023-02-22T21:08:15.892Z,20.03
2023-02-22T21:10:21.064Z,19.23
2023-02-22T21:12:24.626Z,18.47
2023-02-22T21:14:31.071Z,19.43
2023-02-22T21:16:36.661Z,19.73
2023-02-22T21:18:39.954Z,19.70
2023-02-22T21:20:44.464Z,18.40
2023-02-22T21:22:50.089Z,21.13
2023-02-22T21:24:54.299Z,18.23
2023-02-22T21:26:58.637Z,20.23
2023-02-22T21:29:03.429Z,20.00
2023-02-22T21:31:08.017Z,20.50
2023-02-22T21:33:15.381Z,20.47
2023-02-22T21:35:21.738Z,20.80
2023-02-22T21:37:26.167Z,21.10
2023-02-22T21:39:29.509Z,22.40
2023-02-22T21:41:34.169Z,22.77
2023-02-22T21:43:37.231Z,20.80
2023-02-22T21:45:40.191Z,23.47
2023-02-22T21:47:46.395Z,21.40
2023-02-22T21:49:50.294Z,24.00
2023-02-22T21:51:53.544Z,23.40
2023-02-22T21:54:01.934Z,22.60
2023-02-22T21:56:06.342Z,23.10
2023-02-22T21:58:09.528Z,23.10
2023-02-22T22:00:19.176Z,23.30
2023-02-22T22:02:22.331Z,23.80
2023-02-22T22:04:27.801Z,23.57
2023-02-22T22:06:32.803Z,24.63
2023-02-22T22:08:40.133Z,23.83
2023-02-22T22:10:44.501Z,24.93
2023-02-22T22:12:47.507Z,23.30
2023-02-22T22:14:50.824Z,23.50
2023-02-22T22:16:56.039Z,23.50
2023-02-22T22:18:59.050Z,26.33
2023-02-22T22:21:10.606Z,23.73
2023-02-22T22:23:13.797Z,25.93
2023-02-22T22:25:18.098Z,26.97
2023-02-22T22:27:22.389Z,25.70
2023-02-22T22:29:28.715Z,26.20
2023-02-22T22:31:32.391Z,25.60
2023-02-22T22:33:35.448Z,25.90
2023-02-22T22:35:39.828Z,26.90
2023-02-22T22:37:43.732Z,26.80
2023-02-22T22:39:46.777Z,26.57
2023-02-22T22:41:49.918Z,25.80
2023-02-22T22:43:54.239Z,26.57
2023-02-22T22:46:00.557Z,28.77
2023-02-22T22:48:04.647Z,26.53
2023-02-22T22:50:10.828Z,24.77
2023-02-22T22:52:16.131Z,26.10
2023-02-22T22:54:19.043Z,27.30
2023-02-22T22:56:26.301Z,26.03
2023-02-22T22:58:29.457Z,29.30
2023-02-22T23:00:37.446Z,27.50
2023-02-22T23:02:40.662Z,28.47
2023-02-22T23:04:43.562Z,27.50
2023-02-22T23:06:49.893Z,28.27
2023-02-22T23:08:59.972Z,30.50
2023-02-22T23:11:09.110Z,25.27
2023-02-22T23:13:15.778Z,27.40
2023-02-22T23:15:18.712Z,31.30
2023-02-22T23:17:31.214Z,29.97
2023-02-22T23:19:37.465Z,27.30
2023-02-22T23:21:43.233Z,28.13
2023-02-22T23:23:47.384Z,31.37
2023-02-22T23:25:51.448Z,28.33
2023-02-22T23:27:55.143Z,29.40
2023-02-22T23:29:59.252Z,31.37
2023-02-22T23:32:02.208Z,31.60
2023-02-22T23:34:11.024Z,32.50
2023-02-22T23:36:15.223Z,31.87
2023-02-22T23:38:18.076Z,32.63
2023-02-22T23:40:21.045Z,34.93
2023-02-22T23:42:23.967Z,33.40
2023-02-22T23:44:27.415Z,34.10
2023-02-22T23:46:32.862Z,35.03
2023-02-22T23:48:36.083Z,34.60
2023-02-22T23:50:40.349Z,35.83
2023-02-22T23:52:43.631Z,36.67
2023-02-22T23:54:46.823Z,36.40
2023-02-22T23:56:56.602Z,35.67
2023-02-22T23:58:59.822Z,35.83
